sensor_id;sensor_type;location;lat;lon;timestamp;pressure;altitude;pressure_sealevel;temperature;humidity
51460;BME280;37534;39.772;2.718;2023-07-29T00:02:08;101098.06;;;24.83;100.00
51460;BME280;37534;39.772;2.718;2023-07-29T00:04:33;101095.66;;;24.80;100.00
51460;BME280;37534;39.772;2.718;2023-07-29T00:06:59;101100.22;;;24.89;100.00
51460;BME280;37534;39.772;2.718;2023-07-29T00:09:25;101098.50;;;24.99;100.00
51460;BME280;37534;39.772;2.718;2023-07-29T00:11:50;101099.81;;;24.94;100.00
51460;BME280;37534;39.772;2.718;2023-07-29T00:14:16;101091.34;;;24.79;100.00
51460;BME280;37534;39.772;2.718;2023-07-29T00:16:41;101096.50;;;24.80;100.00
51460;BME280;37534;39.772;2.718;2023-07-29T00:19:08;101100.09;;;24.79;100.00
51460;BME280;37534;39.772;2.718;2023-07-29T00:21:33;101087.41;;;24.73;100.00
51460;BME280;37534;39.772;2.718;2023-07-29T00:23:59;101096.72;;;24.89;100.00
51460;BME280;37534;39.772;2.718;2023-07-29T00:26:26;101110.38;;;24.94;100.00
51460;BME280;37534;39.772;2.718;2023-07-29T00:28:55;101108.84;;;24.80;100.00
51460;BME280;37534;39.772;2.718;2023-07-29T00:31:20;101090.53;;;24.67;100.00
51460;BME280;37534;39.772;2.718;2023-07-29T00:33:46;101102.06;;;24.66;100.00
51460;BME280;37534;39.772;2.718;2023-07-29T00:36:11;101076.66;;;24.54;100.00
51460;BME280;37534;39.772;2.718;2023-07-29T00:38:37;101082.00;;;24.52;100.00
51460;BME280;37534;39.772;2.718;2023-07-29T00:41:03;101101.78;;;24.69;100.00
51460;BME280;37534;39.772;2.718;2023-07-29T00:43:29;101094.38;;;24.63;100.00
51460;BME280;37534;39.772;2.718;2023-07-29T00:45:54;101086.47;;;24.63;100.00
51460;BME280;37534;39.772;2.718;2023-07-29T00:48:22;101087.53;;;24.60;100.00
51460;BME280;37534;39.772;2.718;2023-07-29T00:50:49;101085.28;;;24.56;100.00
51460;BME280;37534;39.772;2.718;2023-07-29T00:53:14;101086.44;;;24.52;100.00
51460;BME280;37534;39.772;2.718;2023-07-29T00:55:41;101079.38;;;24.52;100.00
51460;BME280;37534;39.772;2.718;2023-07-29T00:58:07;101089.78;;;24.42;100.00
51460;BME280;37534;39.772;2.718;2023-07-29T01:00:32;101071.59;;;24.17;100.00
51460;BME280;37534;39.772;2.718;2023-07-29T01:02:58;101078.06;;;24.13;100.00
51460;BME280;37534;39.772;2.718;2023-07-29T01:05:28;101080.22;;;24.07;100.00
51460;BME280;37534;39.772;2.718;2023-07-29T01:16:05;101064.63;;;24.04;100.00
51460;BME280;37534;39.772;2.718;2023-07-29T01:18:36;101062.84;;;24.05;100.00
51460;BME280;37534;39.772;2.718;2023-07-29T01:21:08;101069.69;;;24.07;100.00
51460;BME280;37534;39.772;2.718;2023-07-29T01:23:34;101062.00;;;24.04;100.00
51460;BME280;37534;39.772;2.718;2023-07-29T01:26:01;101073.03;;;24.09;100.00
51460;BME280;37534;39.772;2.718;2023-07-29T01:28:27;101073.25;;;24.06;100.00
51460;BME280;37534;39.772;2.718;2023-07-29T01:33:40;101060.69;;;24.10;100.00
51460;BME280;37534;39.772;2.718;2023-07-29T01:36:20;101042.47;;;23.96;100.00
51460;BME280;37534;39.772;2.718;2023-07-29T01:38:48;101055.53;;;23.97;100.00
51460;BME280;37534;39.772;2.718;2023-07-29T01:41:16;101052.19;;;23.95;100.00
51460;BME280;37534;39.772;2.718;2023-07-29T01:43:43;101057.44;;;23.95;100.00
51460;BME280;37534;39.772;2.718;2023-07-29T01:46:15;101055.66;;;23.96;100.00
51460;BME280;37534;39.772;2.718;2023-07-29T01:48:41;101052.75;;;23.87;100.00
51460;BME280;37534;39.772;2.718;2023-07-29T01:51:07;101060.53;;;23.89;100.00
51460;BME280;37534;39.772;2.718;2023-07-29T01:53:34;101043.97;;;23.76;100.00
51460;BME280;37534;39.772;2.718;2023-07-29T01:55:59;101050.78;;;23.78;100.00
51460;BME280;37534;39.772;2.718;2023-07-29T01:58:25;101048.28;;;23.77;100.00
51460;BME280;37534;39.772;2.718;2023-07-29T02:00:51;101049.34;;;23.74;100.00
51460;BME280;37534;39.772;2.718;2023-07-29T02:03:16;101060.00;;;23.72;100.00
51460;BME280;37534;39.772;2.718;2023-07-29T02:05:42;101053.06;;;23.71;100.00
51460;BME280;37534;39.772;2.718;2023-07-29T02:08:09;101050.19;;;23.63;100.00
51460;BME280;37534;39.772;2.718;2023-07-29T02:10:35;101053.53;;;23.65;100.00
51460;BME280;37534;39.772;2.718;2023-07-29T02:13:01;101045.97;;;23.61;100.00
51460;BME280;37534;39.772;2.718;2023-07-29T02:15:27;101055.44;;;23.63;100.00
51460;BME280;37534;39.772;2.718;2023-07-29T02:17:53;101041.56;;;23.61;100.00
51460;BME280;37534;39.772;2.718;2023-07-29T02:20:19;101047.06;;;23.69;100.00
51460;BME280;37534;39.772;2.718;2023-07-29T02:22:45;101052.34;;;23.69;100.00
51460;BME280;37534;39.772;2.718;2023-07-29T02:25:10;101036.63;;;23.68;100.00
51460;BME280;37534;39.772;2.718;2023-07-29T02:27:36;101045.63;;;23.54;100.00
51460;BME280;37534;39.772;2.718;2023-07-29T02:30:02;101044.63;;;23.44;100.00
51460;BME280;37534;39.772;2.718;2023-07-29T02:32:28;101041.59;;;23.37;100.00
51460;BME280;37534;39.772;2.718;2023-07-29T02:34:53;101044.00;;;23.40;100.00
51460;BME280;37534;39.772;2.718;2023-07-29T02:37:19;101034.78;;;23.34;100.00
51460;BME280;37534;39.772;2.718;2023-07-29T02:39:45;101035.63;;;23.35;100.00
51460;BME280;37534;39.772;2.718;2023-07-29T02:42:11;101037.75;;;23.30;100.00
51460;BME280;37534;39.772;2.718;2023-07-29T02:44:37;101039.78;;;23.26;100.00
51460;BME280;37534;39.772;2.718;2023-07-29T02:47:02;101037.38;;;23.23;100.00
51460;BME280;37534;39.772;2.718;2023-07-29T02:49:28;101034.47;;;23.15;100.00
51460;BME280;37534;39.772;2.718;2023-07-29T02:51:54;101031.72;;;23.16;100.00
51460;BME280;37534;39.772;2.718;2023-07-29T02:54:20;101026.06;;;23.10;100.00
51460;BME280;37534;39.772;2.718;2023-07-29T02:56:45;101037.81;;;23.17;100.00
51460;BME280;37534;39.772;2.718;2023-07-29T02:59:11;101044.53;;;23.21;100.00
51460;BME280;37534;39.772;2.718;2023-07-29T03:01:36;101041.19;;;23.19;100.00
51460;BME280;37534;39.772;2.718;2023-07-29T03:04:02;101037.72;;;23.19;100.00
51460;BME280;37534;39.772;2.718;2023-07-29T03:06:28;101035.19;;;23.17;100.00
51460;BME280;37534;39.772;2.718;2023-07-29T03:08:54;101031.72;;;23.16;100.00
51460;BME280;37534;39.772;2.718;2023-07-29T03:11:19;101029.44;;;23.12;100.00
51460;BME280;37534;39.772;2.718;2023-07-29T03:13:45;101034.69;;;23.12;100.00
51460;BME280;37534;39.772;2.718;2023-07-29T03:18:38;101039.28;;;23.21;100.00
51460;BME280;37534;39.772;2.718;2023-07-29T03:21:04;101036.34;;;23.13;100.00
51460;BME280;37534;39.772;2.718;2023-07-29T03:23:30;101023.13;;;23.02;100.00
51460;BME280;37534;39.772;2.718;2023-07-29T03:25:57;101032.22;;;22.97;100.00
51460;BME280;37534;39.772;2.718;2023-07-29T03:28:25;101035.75;;;23.09;100.00
51460;BME280;37534;39.772;2.718;2023-07-29T03:30:53;101042.84;;;23.20;100.00
51460;BME280;37534;39.772;2.718;2023-07-29T03:33:19;101038.78;;;23.16;100.00
51460;BME280;37534;39.772;2.718;2023-07-29T03:35:44;101031.03;;;23.02;100.00
51460;BME280;37534;39.772;2.718;2023-07-29T03:38:11;101031.25;;;22.98;100.00
51460;BME280;37534;39.772;2.718;2023-07-29T03:40:37;101021.25;;;22.80;100.00
51460;BME280;37534;39.772;2.718;2023-07-29T03:43:04;101026.72;;;22.76;100.00
51460;BME280;37534;39.772;2.718;2023-07-29T03:45:29;101037.97;;;22.78;100.00
51460;BME280;37534;39.772;2.718;2023-07-29T03:47:55;101033.47;;;22.68;100.00
51460;BME280;37534;39.772;2.718;2023-07-29T03:50:21;101038.41;;;22.72;100.00
51460;BME280;37534;39.772;2.718;2023-07-29T03:52:46;101037.56;;;22.72;100.00
51460;BME280;37534;39.772;2.718;2023-07-29T03:55:12;101044.50;;;22.73;100.00
51460;BME280;37534;39.772;2.718;2023-07-29T03:57:37;101044.56;;;22.84;100.00
51460;BME280;37534;39.772;2.718;2023-07-29T04:00:04;101041.31;;;22.81;100.00
51460;BME280;37534;39.772;2.718;2023-07-29T04:02:29;101032.28;;;22.72;100.00
51460;BME280;37534;39.772;2.718;2023-07-29T04:04:55;101025.91;;;22.63;100.00
51460;BME280;37534;39.772;2.718;2023-07-29T04:07:21;101038.00;;;22.66;100.00
51460;BME280;37534;39.772;2.718;2023-07-29T04:09:46;101038.00;;;22.66;100.00
51460;BME280;37534;39.772;2.718;2023-07-29T04:12:12;101045.69;;;22.69;100.00
51460;BME280;37534;39.772;2.718;2023-07-29T04:14:38;101053.94;;;22.88;100.00
51460;BME280;37534;39.772;2.718;2023-07-29T04:17:03;101038.97;;;22.89;100.00
51460;BME280;37534;39.772;2.718;2023-07-29T04:19:29;101033.63;;;22.77;100.00
51460;BME280;37534;39.772;2.718;2023-07-29T04:21:55;101038.34;;;22.61;100.00
51460;BME280;37534;39.772;2.718;2023-07-29T04:24:20;101036.47;;;22.50;100.00
51460;BME280;37534;39.772;2.718;2023-07-29T04:26:49;101034.50;;;22.41;100.00
51460;BME280;37534;39.772;2.718;2023-07-29T04:29:14;101035.75;;;22.48;100.00
51460;BME280;37534;39.772;2.718;2023-07-29T04:31:40;101036.78;;;22.58;100.00
51460;BME280;37534;39.772;2.718;2023-07-29T04:34:06;101039.31;;;22.47;100.00
51460;BME280;37534;39.772;2.718;2023-07-29T04:36:32;101033.06;;;22.37;100.00
51460;BME280;37534;39.772;2.718;2023-07-29T04:38:57;101036.81;;;22.33;100.00
51460;BME280;37534;39.772;2.718;2023-07-29T04:41:23;101039.44;;;22.33;100.00
51460;BME280;37534;39.772;2.718;2023-07-29T04:43:49;101039.44;;;22.33;100.00
51460;BME280;37534;39.772;2.718;2023-07-29T04:46:15;101042.06;;;22.33;100.00
51460;BME280;37534;39.772;2.718;2023-07-29T04:48:41;101028.09;;;22.32;100.00
51460;BME280;37534;39.772;2.718;2023-07-29T04:51:06;101030.84;;;22.31;100.00
51460;BME280;37534;39.772;2.718;2023-07-29T04:53:32;101039.44;;;22.33;100.00
51460;BME280;37534;39.772;2.718;2023-07-29T04:55:58;101047.72;;;22.52;100.00
51460;BME280;37534;39.772;2.718;2023-07-29T04:58:23;101042.06;;;22.46;100.00
51460;BME280;37534;39.772;2.718;2023-07-29T05:00:49;101047.44;;;22.44;100.00
51460;BME280;37534;39.772;2.718;2023-07-29T05:03:15;101045.44;;;22.48;100.00
51460;BME280;37534;39.772;2.718;2023-07-29T05:05:40;101048.47;;;22.42;100.00
51460;BME280;37534;39.772;2.718;2023-07-29T05:08:06;101059.97;;;22.40;100.00
51460;BME280;37534;39.772;2.718;2023-07-29T05:10:31;101048.41;;;22.30;100.00
51460;BME280;37534;39.772;2.718;2023-07-29T05:12:57;101042.69;;;22.24;100.00
51460;BME280;37534;39.772;2.718;2023-07-29T05:15:23;101060.72;;;22.30;100.00
51460;BME280;37534;39.772;2.718;2023-07-29T05:17:48;101068.59;;;22.30;100.00
51460;BME280;37534;39.772;2.718;2023-07-29T05:20:14;101074.75;;;22.42;100.00
51460;BME280;37534;39.772;2.718;2023-07-29T05:22:39;101065.44;;;22.37;100.00
51460;BME280;37534;39.772;2.718;2023-07-29T05:25:05;101076.34;;;22.44;100.00
51460;BME280;37534;39.772;2.718;2023-07-29T05:27:31;101072.56;;;22.48;100.00
51460;BME280;37534;39.772;2.718;2023-07-29T05:29:57;101084.75;;;22.49;100.00
51460;BME280;37534;39.772;2.718;2023-07-29T05:32:22;101078.53;;;22.50;100.00
51460;BME280;37534;39.772;2.718;2023-07-29T05:34:48;101087.59;;;22.46;100.00
51460;BME280;37534;39.772;2.718;2023-07-29T05:37:14;101085.69;;;22.48;100.00
51460;BME280;37534;39.772;2.718;2023-07-29T05:39:39;101081.63;;;22.44;100.00
51460;BME280;37534;39.772;2.718;2023-07-29T05:42:05;101084.75;;;22.36;100.00
51460;BME280;37534;39.772;2.718;2023-07-29T05:44:31;101087.69;;;22.45;100.00
51460;BME280;37534;39.772;2.718;2023-07-29T05:46:57;101095.03;;;22.52;100.00
51460;BME280;37534;39.772;2.718;2023-07-29T05:49:23;101091.28;;;22.44;100.00
51460;BME280;37534;39.772;2.718;2023-07-29T05:51:48;101105.03;;;22.47;100.00
51460;BME280;37534;39.772;2.718;2023-07-29T05:54:17;101094.66;;;22.46;100.00
51460;BME280;37534;39.772;2.718;2023-07-29T05:56:42;101102.00;;;22.53;100.00
51460;BME280;37534;39.772;2.718;2023-07-29T05:59:08;101103.25;;;22.61;100.00
51460;BME280;37534;39.772;2.718;2023-07-29T06:01:33;101113.41;;;22.78;100.00
51460;BME280;37534;39.772;2.718;2023-07-29T06:04:00;101115.53;;;22.97;100.00
51460;BME280;37534;39.772;2.718;2023-07-29T06:06:26;101103.34;;;23.09;100.00
51460;BME280;37534;39.772;2.718;2023-07-29T06:08:52;101114.59;;;23.35;100.00
51460;BME280;37534;39.772;2.718;2023-07-29T06:11:18;101101.69;;;23.43;100.00
51460;BME280;37534;39.772;2.718;2023-07-29T06:13:43;101104.63;;;23.63;100.00
51460;BME280;37534;39.772;2.718;2023-07-29T06:16:09;101114.44;;;23.85;100.00
51460;BME280;37534;39.772;2.718;2023-07-29T06:18:35;101108.00;;;24.00;100.00
51460;BME280;37534;39.772;2.718;2023-07-29T06:21:00;101113.88;;;24.15;100.00
51460;BME280;37534;39.772;2.718;2023-07-29T06:23:26;101111.84;;;24.30;100.00
51460;BME280;37534;39.772;2.718;2023-07-29T06:25:51;101108.25;;;24.42;100.00
51460;BME280;37534;39.772;2.718;2023-07-29T06:28:17;101113.56;;;24.65;100.00
51460;BME280;37534;39.772;2.718;2023-07-29T06:30:43;101115.94;;;24.79;100.00
51460;BME280;37534;39.772;2.718;2023-07-29T06:33:08;101122.88;;;24.92;100.00
51460;BME280;37534;39.772;2.718;2023-07-29T06:35:34;101119.13;;;24.94;100.00
51460;BME280;37534;39.772;2.718;2023-07-29T06:38:00;101108.34;;;24.97;100.00
51460;BME280;37534;39.772;2.718;2023-07-29T06:40:25;101116.44;;;25.17;100.00
51460;BME280;37534;39.772;2.718;2023-07-29T06:42:51;101118.22;;;25.28;100.00
51460;BME280;37534;39.772;2.718;2023-07-29T06:45:17;101122.75;;;25.37;100.00
51460;BME280;37534;39.772;2.718;2023-07-29T06:47:42;101110.88;;;25.42;100.00
51460;BME280;37534;39.772;2.718;2023-07-29T06:50:09;101123.19;;;25.53;97.37
51460;BME280;37534;39.772;2.718;2023-07-29T06:52:35;101119.41;;;25.67;92.76
51460;BME280;37534;39.772;2.718;2023-07-29T06:55:02;101111.66;;;25.75;95.74
51460;BME280;37534;39.772;2.718;2023-07-29T06:57:28;101115.78;;;25.89;96.42
51460;BME280;37534;39.772;2.718;2023-07-29T06:59:53;101101.56;;;26.02;93.01
51460;BME280;37534;39.772;2.718;2023-07-29T07:02:19;101118.47;;;26.20;90.01
51460;BME280;37534;39.772;2.718;2023-07-29T07:04:44;101105.31;;;26.30;89.13
51460;BME280;37534;39.772;2.718;2023-07-29T07:07:10;101094.31;;;26.34;88.33
51460;BME280;37534;39.772;2.718;2023-07-29T07:09:36;101096.59;;;26.49;90.98
51460;BME280;37534;39.772;2.718;2023-07-29T07:12:01;101095.16;;;26.66;91.61
51460;BME280;37534;39.772;2.718;2023-07-29T07:14:27;101094.63;;;26.82;91.08
51460;BME280;37534;39.772;2.718;2023-07-29T07:16:53;101089.63;;;26.98;88.85
51460;BME280;37534;39.772;2.718;2023-07-29T07:19:18;101087.97;;;27.17;85.66
51460;BME280;37534;39.772;2.718;2023-07-29T07:21:44;101085.22;;;27.28;79.35
51460;BME280;37534;39.772;2.718;2023-07-29T07:24:09;101081.88;;;27.45;75.96
51460;BME280;37534;39.772;2.718;2023-07-29T07:26:35;101082.38;;;27.59;76.67
51460;BME280;37534;39.772;2.718;2023-07-29T07:29:00;101084.19;;;27.78;75.09
51460;BME280;37534;39.772;2.718;2023-07-29T07:31:26;101080.13;;;27.83;74.21
51460;BME280;37534;39.772;2.718;2023-07-29T07:33:51;101084.41;;;28.04;77.33
51460;BME280;37534;39.772;2.718;2023-07-29T07:36:17;101075.31;;;28.16;80.90
51460;BME280;37534;39.772;2.718;2023-07-29T07:38:42;101085.50;;;28.39;86.05
51460;BME280;37534;39.772;2.718;2023-07-29T07:41:08;101073.03;;;28.49;89.77
51460;BME280;37534;39.772;2.718;2023-07-29T07:43:33;101065.06;;;28.59;87.29
51460;BME280;37534;39.772;2.718;2023-07-29T07:46:00;101074.34;;;28.73;87.87
51460;BME280;37534;39.772;2.718;2023-07-29T07:48:27;101080.41;;;28.83;87.28
51460;BME280;37534;39.772;2.718;2023-07-29T07:50:53;101079.53;;;28.92;85.21
51460;BME280;37534;39.772;2.718;2023-07-29T07:53:18;101072.38;;;28.93;82.78
51460;BME280;37534;39.772;2.718;2023-07-29T07:55:46;101075.63;;;29.05;79.85
51460;BME280;37534;39.772;2.718;2023-07-29T07:58:12;101069.72;;;29.11;71.69
51460;BME280;37534;39.772;2.718;2023-07-29T08:00:39;101081.13;;;29.21;69.31
51460;BME280;37534;39.772;2.718;2023-07-29T08:03:05;101084.06;;;29.36;67.47
51460;BME280;37534;39.772;2.718;2023-07-29T08:05:31;101085.34;;;29.50;66.38
51460;BME280;37534;39.772;2.718;2023-07-29T08:07:57;101078.47;;;29.65;67.12
51460;BME280;37534;39.772;2.718;2023-07-29T08:10:23;101084.25;;;29.79;64.56
51460;BME280;37534;39.772;2.718;2023-07-29T08:12:48;101082.97;;;29.91;64.91
51460;BME280;37534;39.772;2.718;2023-07-29T08:15:14;101088.81;;;29.94;69.23
51460;BME280;37534;39.772;2.718;2023-07-29T08:17:40;101093.09;;;30.13;69.59
51460;BME280;37534;39.772;2.718;2023-07-29T08:20:05;101096.78;;;30.29;70.86
51460;BME280;37534;39.772;2.718;2023-07-29T08:22:32;101095.22;;;30.44;72.53
51460;BME280;37534;39.772;2.718;2023-07-29T08:24:58;101086.44;;;30.52;81.48
51460;BME280;37534;39.772;2.718;2023-07-29T08:27:24;101094.97;;;30.64;83.51
51460;BME280;37534;39.772;2.718;2023-07-29T08:29:50;101091.97;;;30.75;85.72
51460;BME280;37534;39.772;2.718;2023-07-29T08:32:15;101092.69;;;30.85;85.67
51460;BME280;37534;39.772;2.718;2023-07-29T08:34:41;101086.72;;;30.92;84.53
51460;BME280;37534;39.772;2.718;2023-07-29T08:37:06;101091.41;;;30.98;84.64
51460;BME280;37534;39.772;2.718;2023-07-29T08:39:32;101086.25;;;31.04;84.26
51460;BME280;37534;39.772;2.718;2023-07-29T08:42:02;101098.25;;;31.17;86.78
51460;BME280;37534;39.772;2.718;2023-07-29T08:44:42;101091.91;;;31.26;87.80
51460;BME280;37534;39.772;2.718;2023-07-29T08:47:08;101095.75;;;31.32;85.59
51460;BME280;37534;39.772;2.718;2023-07-29T08:49:35;101095.25;;;31.36;83.76
51460;BME280;37534;39.772;2.718;2023-07-29T08:52:02;101096.09;;;31.45;85.34
51460;BME280;37534;39.772;2.718;2023-07-29T08:54:29;101089.28;;;31.51;83.78
51460;BME280;37534;39.772;2.718;2023-07-29T08:56:54;101100.44;;;31.62;84.04
51460;BME280;37534;39.772;2.718;2023-07-29T08:59:20;101102.91;;;31.64;85.17
51460;BME280;37534;39.772;2.718;2023-07-29T09:01:47;101096.09;;;31.70;83.59
51460;BME280;37534;39.772;2.718;2023-07-29T09:04:12;101112.06;;;31.78;82.14
51460;BME280;37534;39.772;2.718;2023-07-29T09:06:39;101103.41;;;31.68;77.10
51460;BME280;37534;39.772;2.718;2023-07-29T09:09:07;101106.75;;;31.70;75.42
51460;BME280;37534;39.772;2.718;2023-07-29T09:11:33;101095.25;;;31.69;76.98
51460;BME280;37534;39.772;2.718;2023-07-29T09:13:59;101106.06;;;31.76;71.07
51460;BME280;37534;39.772;2.718;2023-07-29T09:16:25;101081.75;;;31.71;67.73
51460;BME280;37534;39.772;2.718;2023-07-29T09:18:51;101103.03;;;31.87;66.99
51460;BME280;37534;39.772;2.718;2023-07-29T09:21:26;101105.69;;;31.95;68.94
51460;BME280;37534;39.772;2.718;2023-07-29T09:23:54;101099.38;;;31.96;71.31
51460;BME280;37534;39.772;2.718;2023-07-29T09:26:27;101107.38;;;31.96;73.65
51460;BME280;37534;39.772;2.718;2023-07-29T09:28:55;101103.53;;;31.91;68.19
51460;BME280;37534;39.772;2.718;2023-07-29T09:31:25;101114.34;;;31.97;69.91
51460;BME280;37534;39.772;2.718;2023-07-29T09:33:59;101121.56;;;32.05;74.87
51460;BME280;37534;39.772;2.718;2023-07-29T09:36:26;101111.84;;;31.96;72.92
51460;BME280;37534;39.772;2.718;2023-07-29T09:38:57;101121.03;;;32.01;72.17
51460;BME280;37534;39.772;2.718;2023-07-29T09:41:24;101120.69;;;32.13;73.76
51460;BME280;37534;39.772;2.718;2023-07-29T09:44:02;101118.69;;;32.07;76.18
51460;BME280;37534;39.772;2.718;2023-07-29T09:46:37;101117.38;;;32.11;79.06
51460;BME280;37534;39.772;2.718;2023-07-29T09:49:07;101123.03;;;32.16;79.68
51460;BME280;37534;39.772;2.718;2023-07-29T09:51:39;101120.00;;;32.19;79.60
51460;BME280;37534;39.772;2.718;2023-07-29T09:54:05;101123.78;;;32.33;79.93
51460;BME280;37534;39.772;2.718;2023-07-29T09:56:30;101118.28;;;32.26;79.97
51460;BME280;37534;39.772;2.718;2023-07-29T09:58:56;101133.81;;;32.31;79.22
51460;BME280;37534;39.772;2.718;2023-07-29T10:01:23;101135.66;;;32.22;78.84
51460;BME280;37534;39.772;2.718;2023-07-29T10:03:49;101125.31;;;32.27;79.19
51460;BME280;37534;39.772;2.718;2023-07-29T10:06:15;101118.66;;;32.23;76.85
51460;BME280;37534;39.772;2.718;2023-07-29T10:08:42;101131.13;;;32.31;76.85
51460;BME280;37534;39.772;2.718;2023-07-29T10:11:09;101124.00;;;32.23;77.91
51460;BME280;37534;39.772;2.718;2023-07-29T10:13:37;101133.59;;;32.40;77.80
51460;BME280;37534;39.772;2.718;2023-07-29T10:16:03;101130.06;;;32.48;77.82
51460;BME280;37534;39.772;2.718;2023-07-29T10:18:31;101119.31;;;32.56;78.26
51460;BME280;37534;39.772;2.718;2023-07-29T10:20:59;101121.78;;;32.74;77.42
51460;BME280;37534;39.772;2.718;2023-07-29T10:23:26;101130.69;;;32.90;76.87
51460;BME280;37534;39.772;2.718;2023-07-29T10:26:02;101116.56;;;33.04;76.91
51460;BME280;37534;39.772;2.718;2023-07-29T10:28:30;101130.56;;;33.14;74.18
51460;BME280;37534;39.772;2.718;2023-07-29T10:30:59;101118.69;;;33.17;74.76
51460;BME280;37534;39.772;2.718;2023-07-29T10:33:25;101125.53;;;33.20;75.28
51460;BME280;37534;39.772;2.718;2023-07-29T10:35:52;101125.25;;;33.06;75.69
51460;BME280;37534;39.772;2.718;2023-07-29T10:38:21;101130.03;;;33.19;76.56
51460;BME280;37534;39.772;2.718;2023-07-29T10:40:56;101117.50;;;33.20;75.35
51460;BME280;37534;39.772;2.718;2023-07-29T10:43:32;101119.22;;;33.36;76.23
51460;BME280;37534;39.772;2.718;2023-07-29T10:46:15;101119.41;;;33.49;74.95
51460;BME280;37534;39.772;2.718;2023-07-29T10:48:54;101121.03;;;33.58;73.83
51460;BME280;37534;39.772;2.718;2023-07-29T10:51:36;101125.00;;;33.62;74.57
51460;BME280;37534;39.772;2.718;2023-07-29T10:54:10;101120.06;;;33.74;74.46
51460;BME280;37534;39.772;2.718;2023-07-29T10:56:39;101113.78;;;33.82;75.13
51460;BME280;37534;39.772;2.718;2023-07-29T11:01:39;101112.22;;;33.87;73.00
51460;BME280;37534;39.772;2.718;2023-07-29T11:15:15;101125.13;;;33.69;75.58
51460;BME280;37534;39.772;2.718;2023-07-29T11:17:48;101124.38;;;33.75;76.05
51460;BME280;37534;39.772;2.718;2023-07-29T11:20:16;101125.50;;;33.66;75.01
51460;BME280;37534;39.772;2.718;2023-07-29T11:22:42;101132.13;;;33.70;76.74
51460;BME280;37534;39.772;2.718;2023-07-29T11:25:10;101117.28;;;33.82;75.63
51460;BME280;37534;39.772;2.718;2023-07-29T11:27:37;101116.09;;;33.85;76.15
51460;BME280;37534;39.772;2.718;2023-07-29T11:30:05;101116.59;;;33.65;75.16
51460;BME280;37534;39.772;2.718;2023-07-29T11:32:32;101101.41;;;33.81;74.10
51460;BME280;37534;39.772;2.718;2023-07-29T11:35:05;101114.47;;;33.99;74.76
51460;BME280;37534;39.772;2.718;2023-07-29T11:37:36;101112.69;;;34.06;74.56
51460;BME280;37534;39.772;2.718;2023-07-29T11:40:03;101102.25;;;33.81;73.58
51460;BME280;37534;39.772;2.718;2023-07-29T11:42:31;101080.28;;;34.01;73.46
51460;BME280;37534;39.772;2.718;2023-07-29T11:45:02;101103.84;;;34.20;71.75
51460;BME280;37534;39.772;2.718;2023-07-29T11:47:29;101101.69;;;34.16;71.64
51460;BME280;37534;39.772;2.718;2023-07-29T11:49:58;101100.13;;;33.91;73.99
51460;BME280;37534;39.772;2.718;2023-07-29T11:52:25;101099.69;;;34.03;73.68
51460;BME280;37534;39.772;2.718;2023-07-29T11:54:54;101103.47;;;34.23;74.17
51460;BME280;37534;39.772;2.718;2023-07-29T11:57:20;101093.03;;;33.99;74.18
51460;BME280;37534;39.772;2.718;2023-07-29T11:59:46;101094.69;;;34.00;75.35
51460;BME280;37534;39.772;2.718;2023-07-29T12:02:15;101091.75;;;34.09;74.80
51460;BME280;37534;39.772;2.718;2023-07-29T12:04:42;101095.97;;;34.34;72.98
51460;BME280;37534;39.772;2.718;2023-07-29T12:07:08;101086.53;;;34.38;72.92
51460;BME280;37534;39.772;2.718;2023-07-29T12:09:35;101086.22;;;34.26;73.37
51460;BME280;37534;39.772;2.718;2023-07-29T12:12:05;101082.72;;;34.25;74.21
51460;BME280;37534;39.772;2.718;2023-07-29T12:14:31;101073.38;;;34.21;74.05
51460;BME280;37534;39.772;2.718;2023-07-29T12:17:00;101079.00;;;34.26;75.30
51460;BME280;37534;39.772;2.718;2023-07-29T12:19:32;101060.16;;;34.35;75.06
51460;BME280;37534;39.772;2.718;2023-07-29T12:21:58;101060.16;;;34.35;73.47
51460;BME280;37534;39.772;2.718;2023-07-29T12:24:23;101072.63;;;34.27;75.15
51460;BME280;37534;39.772;2.718;2023-07-29T12:26:49;101071.53;;;34.22;75.21
51460;BME280;37534;39.772;2.718;2023-07-29T12:29:18;101066.44;;;34.12;75.54
51460;BME280;37534;39.772;2.718;2023-07-29T12:31:47;101066.63;;;34.25;75.69
51460;BME280;37534;39.772;2.718;2023-07-29T12:34:20;101045.66;;;34.29;73.52
51460;BME280;37534;39.772;2.718;2023-07-29T12:36:50;101047.63;;;34.20;74.58
51460;BME280;37534;39.772;2.718;2023-07-29T12:39:23;101045.78;;;34.06;76.65
51460;BME280;37534;39.772;2.718;2023-07-29T12:41:52;101042.44;;;34.04;75.69
51460;BME280;37534;39.772;2.718;2023-07-29T12:44:18;101028.94;;;34.12;76.60
51460;BME280;37534;39.772;2.718;2023-07-29T12:46:43;101035.97;;;34.13;76.10
51460;BME280;37534;39.772;2.718;2023-07-29T12:49:09;101031.44;;;34.14;75.51
51460;BME280;37534;39.772;2.718;2023-07-29T12:51:35;101034.84;;;34.07;76.27
51460;BME280;37534;39.772;2.718;2023-07-29T12:54:03;101039.19;;;34.08;76.84
51460;BME280;37534;39.772;2.718;2023-07-29T12:56:29;101016.97;;;34.08;76.64
51460;BME280;37534;39.772;2.718;2023-07-29T12:58:56;101031.06;;;34.17;77.81
51460;BME280;37534;39.772;2.718;2023-07-29T13:01:23;101022.50;;;34.06;77.25
51460;BME280;37534;39.772;2.718;2023-07-29T13:03:49;101020.09;;;33.97;78.50
51460;BME280;37534;39.772;2.718;2023-07-29T13:06:14;101014.56;;;33.98;78.19
51460;BME280;37534;39.772;2.718;2023-07-29T13:08:41;101012.25;;;33.95;77.19
51460;BME280;37534;39.772;2.718;2023-07-29T13:11:06;101021.03;;;33.89;77.82